createdAt,value
2023-02-08T00:00:47.005Z,15.47
2023-02-08T00:03:13.442Z,12.30
2023-02-08T00:05:40.444Z,22.40
2023-02-08T00:08:07.638Z,21.03
2023-02-08T00:10:34.882Z,21.17
2023-02-08T00:13:01.812Z,18.60
2023-02-08T00:15:28.301Z,17.40
2023-02-08T00:17:54.973Z,19.20
2023-02-08T00:20:21.657Z,16.77
2023-02-08T00:22:48.401Z,21.33
2023-02-08T00:25:14.835Z,18.63
2023-02-08T00:27:41.196Z,18.63
2023-02-08T00:30:08.776Z,18.83
2023-02-08T00:32:35.614Z,22.47
2023-02-08T00:35:04.517Z,25.30
2023-02-08T00:37:30.936Z,18.80
2023-02-08T00:39:57.253Z,18.87
2023-02-08T00:42:23.840Z,20.50
2023-02-08T00:44:50.341Z,17.50
2023-02-08T00:47:16.767Z,17.63
2023-02-08T00:49:43.200Z,19.07
2023-02-08T00:52:09.655Z,21.83
2023-02-08T00:54:36.410Z,16.03
2023-02-08T00:57:02.846Z,13.77
2023-02-08T00:59:29.342Z,17.07
2023-02-08T01:01:55.966Z,14.27
2023-02-08T01:04:22.487Z,13.37
2023-02-08T01:06:48.911Z,13.47
2023-02-08T01:09:15.564Z,12.60
2023-02-08T01:11:42.294Z,12.07
2023-02-08T01:14:09.007Z,15.10
2023-02-08T01:16:36.462Z,14.17
2023-02-08T01:19:04.613Z,10.50
2023-02-08T01:21:34.223Z,13.37
2023-02-08T01:24:02.324Z,12.03
2023-02-08T01:26:29.931Z,11.50
2023-02-08T01:28:57.104Z,13.47
2023-02-08T01:31:26.405Z,13.87
2023-02-08T01:33:52.981Z,15.07
2023-02-08T01:36:19.516Z,15.17
2023-02-08T01:38:46.598Z,15.50
2023-02-08T01:41:22.068Z,14.90
2023-02-08T01:44:00.739Z,14.10
2023-02-08T01:46:27.553Z,15.33
2023-02-08T01:48:57.683Z,16.67
2023-02-08T01:51:31.475Z,18.63
2023-02-08T01:54:00.388Z,17.97
2023-02-08T01:56:31.080Z,18.33
2023-02-08T01:59:00.752Z,21.88
2023-02-08T02:01:31.004Z,21.80
2023-02-08T02:04:02.015Z,22.08
2023-02-08T02:06:33.435Z,20.33
2023-02-08T02:09:26.671Z,22.30
2023-02-08T02:11:54.662Z,24.37
2023-02-08T02:14:22.389Z,19.90
2023-02-08T02:16:48.965Z,21.07
2023-02-08T02:19:36.144Z,24.53
2023-02-08T02:22:10.726Z,19.67
2023-02-08T02:35:13.798Z,24.70
2023-02-08T02:38:25.204Z,23.93
2023-02-08T02:41:29.610Z,18.33
2023-02-08T02:43:57.850Z,21.40
2023-02-08T02:46:25.962Z,22.57
2023-02-08T02:49:04.376Z,26.53
2023-02-08T02:51:48.791Z,20.53
2023-02-08T02:54:20.808Z,23.50
2023-02-08T02:56:55.503Z,22.87
2023-02-08T02:59:22.733Z,23.20
2023-02-08T03:01:49.636Z,21.03
2023-02-08T03:04:19.198Z,23.77
2023-02-08T03:06:51.986Z,25.13
2023-02-08T03:09:35.494Z,25.27
2023-02-08T03:12:20.224Z,24.83
2023-02-08T03:14:57.750Z,21.10
2023-02-08T03:17:36.807Z,19.70
2023-02-08T03:20:09.724Z,21.10
2023-02-08T03:22:57.288Z,19.23
2023-02-08T03:25:35.374Z,17.10
2023-02-08T03:28:08.549Z,16.83
2023-02-08T03:30:47.384Z,22.50
2023-02-08T03:33:26.854Z,20.83
2023-02-08T03:35:57.011Z,18.10
2023-02-08T03:38:36.246Z,17.63
2023-02-08T03:41:06.425Z,19.30
2023-02-08T03:43:38.561Z,19.27
2023-02-08T03:46:17.711Z,21.03
2023-02-08T03:48:49.405Z,21.00
2023-02-08T03:51:16.828Z,23.10
2023-02-08T03:53:46.336Z,21.83
2023-02-08T03:56:28.802Z,22.33
2023-02-08T03:59:20.700Z,23.47
2023-02-08T04:02:10.330Z,22.83
2023-02-08T04:04:41.983Z,19.70
2023-02-08T04:07:09.154Z,22.83
2023-02-08T04:09:38.459Z,25.23
2023-02-08T04:12:05.797Z,21.17
2023-02-08T04:14:32.307Z,19.57
2023-02-08T04:16:58.921Z,19.73
2023-02-08T04:19:25.398Z,18.53
2023-02-08T04:21:51.830Z,20.20
2023-02-08T04:24:18.239Z,20.80
2023-02-08T04:26:44.650Z,20.67
2023-02-08T04:29:11.199Z,25.63
2023-02-08T04:31:37.807Z,24.10
2023-02-08T04:34:04.434Z,19.83
2023-02-08T04:36:31.052Z,24.17
2023-02-08T04:38:57.543Z,25.83
2023-02-08T04:41:25.371Z,19.67
2023-02-08T04:43:51.860Z,21.13
2023-02-08T04:46:18.700Z,18.37
2023-02-08T04:48:45.588Z,22.20
2023-02-08T04:51:12.084Z,31.50
2023-02-08T04:53:38.812Z,31.00
2023-02-08T04:56:05.524Z,30.00
2023-02-08T04:58:32.024Z,45.10
2023-02-08T05:00:58.450Z,31.33
2023-02-08T05:03:25.056Z,40.03
2023-02-08T05:05:59.182Z,23.43
2023-02-08T05:08:26.202Z,29.37
2023-02-08T05:10:52.690Z,37.60
2023-02-08T05:13:19.227Z,30.90
2023-02-08T05:15:45.938Z,35.47
2023-02-08T05:18:12.473Z,25.03
2023-02-08T05:20:39.357Z,22.10
2023-02-08T05:23:05.988Z,27.73
2023-02-08T05:25:32.576Z,26.37
2023-02-08T05:28:00.351Z,26.50
2023-02-08T05:30:27.093Z,24.70
2023-02-08T05:32:53.606Z,26.00
2023-02-08T05:35:20.131Z,18.33
2023-02-08T05:37:46.618Z,25.67
2023-02-08T05:40:13.152Z,23.73
2023-02-08T05:42:39.772Z,24.13
2023-02-08T05:45:06.519Z,28.50
2023-02-08T05:47:33.053Z,25.33
2023-02-08T05:49:59.796Z,29.70
2023-02-08T05:52:26.308Z,33.57
2023-02-08T05:54:52.969Z,24.43
2023-02-08T05:57:19.438Z,28.83
2023-02-08T05:59:45.833Z,27.00
2023-02-08T06:02:12.272Z,28.17
2023-02-08T06:04:39.211Z,24.40
2023-02-08T06:07:05.930Z,25.23
2023-02-08T06:09:32.351Z,20.37
2023-02-08T06:11:59.249Z,28.30
2023-02-08T06:14:25.980Z,21.77
2023-02-08T06:16:52.821Z,20.13
2023-02-08T06:19:19.471Z,27.87
2023-02-08T06:21:45.981Z,26.33
2023-02-08T06:24:12.541Z,29.63
2023-02-08T06:26:41.322Z,22.00
2023-02-08T06:29:08.022Z,29.83
2023-02-08T06:31:35.638Z,27.33
2023-02-08T06:34:02.558Z,23.33
2023-02-08T06:36:29.174Z,32.43
2023-02-08T06:38:55.598Z,33.47
2023-02-08T06:41:23.613Z,26.67
2023-02-08T06:43:50.017Z,27.97
2023-02-08T06:46:16.715Z,28.30
2023-02-08T06:48:43.207Z,27.67
2023-02-08T06:51:10.826Z,35.33
2023-02-08T06:53:37.259Z,24.73
2023-02-08T06:56:03.947Z,26.40
2023-02-08T06:58:30.457Z,29.50
2023-02-08T07:00:56.976Z,26.13
2023-02-08T07:03:23.796Z,30.80
2023-02-08T07:06:04.184Z,34.27
2023-02-08T07:08:32.625Z,25.27
2023-02-08T07:11:01.203Z,32.93
2023-02-08T07:13:29.185Z,30.93
2023-02-08T07:15:55.759Z,37.13
2023-02-08T07:18:22.523Z,36.17
2023-02-08T07:20:49.106Z,32.90
2023-02-08T07:23:15.823Z,28.37
2023-02-08T07:25:42.660Z,29.27
2023-02-08T07:28:10.170Z,29.43
2023-02-08T07:30:37.314Z,39.30
2023-02-08T07:33:03.905Z,23.20
2023-02-08T07:35:30.469Z,40.83
2023-02-08T07:37:56.940Z,43.10
2023-02-08T07:40:23.451Z,44.50
2023-02-08T07:42:49.892Z,51.27
2023-02-08T07:45:16.421Z,43.77
2023-02-08T07:47:43.061Z,45.43
2023-02-08T07:50:09.665Z,52.17
2023-02-08T07:52:36.296Z,39.33
2023-02-08T07:55:02.906Z,42.10
2023-02-08T07:57:29.440Z,42.90
2023-02-08T07:59:55.886Z,37.40
2023-02-08T08:02:22.364Z,40.30
2023-02-08T08:04:48.774Z,45.23
2023-02-08T08:07:15.607Z,39.50
2023-02-08T08:09:42.116Z,43.87
2023-02-08T08:12:08.636Z,35.90
2023-02-08T08:14:35.350Z,43.67
2023-02-08T08:17:01.806Z,39.03
2023-02-08T08:19:28.364Z,34.90
2023-02-08T08:21:54.855Z,22.73
2023-02-08T08:24:21.374Z,19.23
2023-02-08T08:26:48.024Z,24.30
2023-02-08T08:29:24.496Z,23.00
2023-02-08T08:31:51.138Z,19.60
2023-02-08T08:34:17.641Z,19.00
2023-02-08T08:36:44.084Z,21.30
2023-02-08T08:39:10.628Z,20.23
2023-02-08T08:41:37.178Z,20.70
2023-02-08T08:44:03.912Z,21.17
2023-02-08T08:46:30.672Z,17.80
2023-02-08T08:48:58.260Z,20.87
2023-02-08T08:51:24.793Z,19.67
2023-02-08T08:53:51.243Z,21.77
2023-02-08T08:56:17.754Z,19.90
2023-02-08T08:58:44.278Z,19.17
2023-02-08T09:01:10.843Z,17.10
2023-02-08T09:03:37.595Z,17.73
2023-02-08T09:06:04.188Z,21.77
2023-02-08T09:08:30.639Z,19.17
2023-02-08T09:10:57.195Z,24.70
2023-02-08T09:13:23.685Z,20.57
2023-02-08T09:15:50.248Z,17.77
2023-02-08T09:18:17.334Z,21.23
2023-02-08T09:20:44.112Z,22.20
2023-02-08T09:23:11.878Z,25.70
2023-02-08T09:25:38.926Z,23.10
2023-02-08T09:28:05.608Z,18.40
2023-02-08T09:30:32.650Z,21.50
2023-02-08T09:32:59.236Z,19.00
2023-02-08T09:35:25.768Z,19.77
2023-02-08T09:37:56.397Z,24.37
2023-02-08T09:40:30.852Z,18.73
2023-02-08T09:43:12.937Z,22.13
2023-02-08T09:46:00.255Z,18.90
2023-02-08T09:48:46.234Z,19.50
2023-02-08T09:51:39.802Z,18.87
2023-02-08T09:54:22.596Z,19.57
2023-02-08T09:56:50.012Z,16.77
2023-02-08T09:59:23.444Z,18.47
2023-02-08T10:01:52.597Z,16.33
2023-02-08T10:04:48.206Z,17.50
2023-02-08T10:07:15.010Z,16.73
2023-02-08T10:09:41.469Z,17.97
2023-02-08T10:12:47.463Z,21.80
2023-02-08T10:15:32.116Z,23.90
2023-02-08T10:18:13.635Z,16.90
2023-02-08T10:20:59.022Z,14.47
2023-02-08T10:23:42.487Z,22.57
2023-02-08T10:26:23.886Z,18.23
2023-02-08T10:29:02.636Z,15.63
2023-02-08T10:31:50.750Z,18.67
2023-02-08T10:34:25.580Z,16.73
2023-02-08T10:36:52.866Z,18.27
2023-02-08T10:39:30.151Z,15.30
2023-02-08T10:41:57.158Z,17.17
2023-02-08T10:44:35.638Z,16.93
2023-02-08T10:47:27.540Z,17.55
2023-02-08T10:50:01.153Z,18.85
2023-02-08T10:52:27.722Z,14.68
2023-02-08T10:54:59.357Z,15.20
2023-02-08T10:57:31.427Z,16.17
2023-02-08T11:00:18.069Z,13.30
2023-02-08T11:02:44.849Z,13.50
2023-02-08T11:05:18.802Z,14.50
2023-02-08T11:07:45.709Z,13.98
2023-02-08T11:10:14.847Z,14.57
2023-02-08T11:12:43.157Z,19.83
2023-02-08T11:15:26.061Z,16.48
2023-02-08T11:17:59.679Z,15.05
2023-02-08T11:20:39.046Z,15.90
2023-02-08T11:23:21.290Z,16.98
2023-02-08T11:25:47.739Z,13.52
2023-02-08T11:28:31.445Z,16.40
2023-02-08T11:31:02.453Z,14.73
2023-02-08T11:33:34.251Z,14.80
2023-02-08T11:36:05.094Z,16.30
2023-02-08T11:41:21.921Z,16.13
2023-02-08T11:44:00.447Z,13.35
2023-02-08T11:46:29.338Z,12.45
2023-02-08T11:48:57.420Z,11.70
2023-02-08T11:51:33.698Z,18.35
2023-02-08T11:54:08.291Z,13.80
2023-02-08T11:56:38.968Z,14.82
2023-02-08T11:59:18.856Z,14.13
2023-02-08T12:01:45.694Z,15.73
2023-02-08T12:04:15.634Z,18.10
2023-02-08T12:07:01.320Z,16.73
2023-02-08T12:09:37.988Z,15.65
2023-02-08T12:12:39.853Z,12.93
2023-02-08T12:15:22.191Z,14.13
2023-02-08T12:18:01.243Z,15.75
2023-02-08T12:20:38.233Z,16.10
2023-02-08T12:23:26.455Z,15.10
2023-02-08T12:26:18.621Z,13.90
2023-02-08T12:29:06.392Z,14.65
2023-02-08T12:31:45.153Z,14.27
2023-02-08T12:34:39.232Z,13.93
2023-02-08T12:37:24.378Z,16.27
2023-02-08T12:40:09.635Z,16.17
2023-02-08T12:43:08.547Z,13.02
2023-02-08T12:45:53.990Z,15.50
2023-02-08T12:48:33.740Z,12.90
2023-02-08T12:51:24.352Z,11.30
2023-02-08T12:53:56.840Z,12.27
2023-02-08T12:56:35.388Z,12.48
2023-02-08T12:59:13.111Z,12.68
2023-02-08T13:01:46.918Z,15.00
2023-02-08T13:04:18.128Z,13.98
2023-02-08T13:06:53.032Z,14.38
2023-02-08T13:09:25.227Z,14.63
2023-02-08T13:11:57.936Z,16.50
2023-02-08T13:14:29.977Z,14.32
2023-02-08T13:17:03.191Z,16.38
2023-02-08T13:19:59.698Z,15.77
2023-02-08T13:22:27.172Z,15.25
2023-02-08T13:25:06.262Z,18.38
2023-02-08T13:27:33.994Z,15.95
2023-02-08T13:30:01.528Z,17.85
2023-02-08T13:32:48.397Z,15.35
2023-02-08T13:35:27.936Z,17.75
2023-02-08T13:38:20.788Z,18.80
2023-02-08T13:40:47.526Z,17.15
2023-02-08T13:43:34.726Z,15.45
2023-02-08T13:46:03.095Z,17.67
2023-02-08T13:48:43.052Z,15.90
2023-02-08T13:51:32.720Z,15.20
2023-02-08T13:54:01.891Z,18.83
2023-02-08T13:56:38.049Z,16.55
2023-02-08T13:59:24.255Z,21.27
2023-02-08T14:02:12.504Z,20.38
2023-02-08T14:04:42.739Z,19.83
2023-02-08T14:07:12.064Z,22.52
2023-02-08T14:10:02.765Z,18.67
2023-02-08T14:12:41.206Z,41.47
2023-02-08T14:15:32.748Z,16.92
2023-02-08T14:18:01.287Z,21.67
2023-02-08T14:20:40.309Z,23.50
2023-02-08T14:23:20.993Z,21.95
2023-02-08T14:25:50.474Z,22.42
2023-02-08T14:28:34.863Z,22.42
2023-02-08T14:31:05.628Z,16.60
2023-02-08T14:33:36.758Z,19.45
2023-02-08T14:36:07.031Z,19.63
2023-02-08T14:39:05.347Z,15.98
2023-02-08T14:41:47.452Z,21.10
2023-02-08T14:44:40.092Z,21.92
2023-02-08T14:47:24.688Z,21.80
2023-02-08T14:50:17.255Z,21.00
2023-02-08T14:53:08.602Z,19.20
2023-02-08T14:55:43.083Z,22.70
2023-02-08T14:58:16.400Z,21.50
2023-02-08T15:00:43.560Z,22.08
2023-02-08T15:03:18.042Z,20.80
2023-02-08T15:06:04.837Z,19.53
2023-02-08T15:08:31.234Z,23.88
2023-02-08T15:10:57.932Z,24.45
2023-02-08T15:13:24.821Z,26.13
2023-02-08T15:15:54.926Z,27.58
2023-02-08T15:18:39.300Z,21.38
2023-02-08T15:21:17.667Z,21.27
2023-02-08T15:24:17.680Z,22.40
2023-02-08T15:26:53.006Z,22.70
2023-02-08T15:29:23.235Z,21.77
2023-02-08T15:31:53.735Z,23.97
2023-02-08T15:34:23.649Z,25.23
2023-02-08T15:36:53.557Z,27.20
2023-02-08T15:39:31.999Z,21.73
2023-02-08T15:41:59.208Z,24.00
2023-02-08T15:44:31.873Z,25.90
2023-02-08T15:47:09.703Z,22.53
2023-02-08T15:49:39.895Z,27.43
2023-02-08T15:52:07.990Z,27.60
2023-02-08T15:54:34.871Z,24.20
2023-02-08T15:57:22.777Z,22.83
2023-02-08T15:59:49.440Z,29.67
2023-02-08T16:02:23.596Z,30.23
2023-02-08T16:04:50.619Z,25.10
2023-02-08T16:07:31.396Z,19.73
2023-02-08T16:09:58.380Z,25.70
2023-02-08T16:12:27.716Z,22.83
2023-02-08T16:14:55.223Z,24.30
2023-02-08T16:17:31.482Z,23.30
2023-02-08T16:19:58.042Z,24.10
2023-02-08T16:22:32.760Z,24.40
2023-02-08T16:25:25.701Z,25.03
2023-02-08T16:27:52.839Z,24.37
2023-02-08T16:30:22.734Z,23.10
2023-02-08T16:32:49.505Z,26.53
2023-02-08T16:35:24.413Z,29.67
2023-02-08T16:38:02.193Z,24.33
2023-02-08T16:40:47.201Z,25.73
2023-02-08T16:43:18.251Z,27.07
2023-02-08T16:45:45.502Z,26.60
2023-02-08T16:48:57.159Z,29.37
2023-02-08T16:51:33.064Z,30.27
2023-02-08T16:54:05.117Z,27.80
2023-02-08T16:56:34.235Z,28.50
2023-02-08T16:59:00.735Z,28.10
2023-02-08T17:01:27.316Z,28.37
2023-02-08T17:03:54.207Z,28.33
2023-02-08T17:06:29.205Z,28.03
2023-02-08T17:08:57.054Z,27.03
2023-02-08T17:11:23.890Z,30.73
2023-02-08T17:13:50.734Z,36.03
2023-02-08T17:16:20.938Z,34.10
2023-02-08T17:18:48.257Z,28.70
2023-02-08T17:21:15.331Z,32.30
2023-02-08T17:23:42.531Z,32.93
2023-02-08T17:26:18.026Z,35.03
2023-02-08T17:28:44.761Z,37.20
2023-02-08T17:31:12.855Z,53.53
2023-02-08T17:33:41.064Z,38.83
2023-02-08T17:36:09.862Z,38.57
2023-02-08T17:38:37.165Z,29.20
2023-02-08T17:41:03.928Z,40.83
2023-02-08T17:43:30.413Z,38.23
2023-02-08T17:45:57.240Z,49.30
2023-02-08T17:48:24.407Z,44.37
2023-02-08T17:50:51.186Z,40.07
2023-02-08T17:53:18.689Z,36.60
2023-02-08T17:55:46.012Z,37.57
2023-02-08T17:58:12.982Z,32.97
2023-02-08T18:00:39.705Z,29.50
2023-02-08T18:03:06.288Z,33.90
2023-02-08T18:05:33.088Z,30.30
2023-02-08T18:07:59.725Z,34.53
2023-02-08T18:10:26.471Z,34.33
2023-02-08T18:12:52.951Z,26.97
2023-02-08T18:15:21.818Z,27.83
2023-02-08T18:17:49.256Z,28.70
2023-02-08T18:20:16.280Z,32.53
2023-02-08T18:22:44.004Z,31.17
2023-02-08T18:25:12.779Z,29.67
2023-02-08T18:27:39.650Z,34.53
2023-02-08T18:30:06.615Z,35.97
2023-02-08T18:32:33.095Z,33.30
2023-02-08T18:35:00.691Z,31.90
2023-02-08T18:37:29.201Z,28.77
2023-02-08T18:39:55.798Z,28.60
2023-02-08T18:42:22.745Z,27.37
2023-02-08T18:44:49.534Z,25.67
2023-02-08T18:47:16.875Z,32.87
2023-02-08T18:49:43.408Z,29.73
2023-02-08T18:52:14.026Z,32.33
2023-02-08T18:54:40.628Z,28.08
2023-02-08T18:57:07.597Z,28.73
2023-02-08T18:59:34.468Z,26.80
2023-02-08T19:02:01.318Z,28.70
2023-02-08T19:04:30.220Z,28.40
2023-02-08T19:06:56.926Z,27.20
2023-02-08T19:09:23.285Z,27.43
2023-02-08T19:11:51.359Z,32.50
2023-02-08T19:14:18.004Z,36.03
2023-02-08T19:16:48.013Z,32.07
2023-02-08T19:19:14.618Z,29.15
2023-02-08T19:21:41.198Z,30.43
2023-02-08T19:24:08.056Z,32.60
2023-02-08T19:26:37.194Z,29.73
2023-02-08T19:29:05.070Z,25.63
2023-02-08T19:31:34.454Z,31.47
2023-02-08T19:34:03.117Z,28.30
2023-02-08T19:36:36.385Z,28.97
2023-02-08T19:39:04.662Z,30.00
2023-02-08T19:41:37.250Z,33.77
2023-02-08T19:44:07.796Z,28.17
2023-02-08T19:46:37.969Z,32.13
2023-02-08T19:49:05.111Z,31.50
2023-02-08T19:51:32.969Z,28.70
2023-02-08T19:54:01.221Z,30.47
2023-02-08T19:56:29.556Z,35.57
2023-02-08T19:58:56.414Z,31.03
2023-02-08T20:01:23.625Z,30.97
2023-02-08T20:03:52.429Z,29.60
2023-02-08T20:06:22.042Z,29.10
2023-02-08T20:08:49.409Z,32.57
2023-02-08T20:11:54.790Z,30.93
2023-02-08T20:14:22.831Z,32.67
2023-02-08T20:16:49.779Z,30.30
2023-02-08T20:19:16.769Z,33.43
2023-02-08T20:21:45.040Z,37.20
2023-02-08T20:24:11.866Z,34.70
2023-02-08T20:26:40.618Z,32.53
2023-02-08T20:29:08.294Z,28.97
2023-02-08T20:31:37.316Z,29.90
2023-02-08T20:34:07.029Z,30.50
2023-02-08T20:36:37.228Z,37.53
2023-02-08T20:39:04.775Z,33.83
2023-02-08T20:41:31.412Z,37.50
2023-02-08T20:43:58.175Z,35.20
2023-02-08T20:46:34.053Z,32.37
2023-02-08T20:49:02.965Z,34.03
2023-02-08T20:51:30.327Z,33.27
2023-02-08T20:53:58.240Z,36.90
2023-02-08T20:56:33.984Z,38.87
2023-02-08T20:59:06.656Z,32.17
2023-02-08T21:01:34.643Z,32.53
2023-02-08T21:04:02.290Z,33.03
2023-02-08T21:06:31.486Z,33.93
2023-02-08T21:09:00.866Z,32.30
2023-02-08T21:11:29.969Z,28.57
2023-02-08T21:13:57.624Z,29.30
2023-02-08T21:16:25.740Z,33.47
2023-02-08T21:18:54.131Z,25.77
2023-02-08T21:21:20.777Z,29.50
2023-02-08T21:23:48.093Z,25.97
2023-02-08T21:26:18.355Z,26.67
2023-02-08T21:28:45.665Z,26.20
2023-02-08T21:31:17.515Z,28.07
2023-02-08T21:33:45.334Z,28.80
2023-02-08T21:36:15.047Z,29.70
2023-02-08T21:38:42.597Z,32.07
2023-02-08T21:41:15.490Z,31.63
2023-02-08T21:43:42.206Z,30.63
2023-02-08T21:46:09.965Z,32.87
2023-02-08T21:48:36.816Z,32.23
2023-02-08T21:51:03.519Z,37.23
2023-02-08T21:53:30.088Z,43.57
2023-02-08T21:55:56.572Z,44.63
2023-02-08T21:58:23.377Z,46.63
2023-02-08T22:00:49.965Z,34.80
2023-02-08T22:03:16.734Z,28.30
2023-02-08T22:05:43.410Z,32.73
2023-02-08T22:08:09.872Z,33.10
2023-02-08T22:10:36.308Z,30.63
2023-02-08T22:13:02.867Z,33.80
2023-02-08T22:15:30.977Z,30.10
2023-02-08T22:17:59.697Z,34.03
2023-02-08T22:20:26.497Z,26.77
2023-02-08T22:22:55.226Z,25.83
2023-02-08T22:25:24.088Z,29.37
2023-02-08T22:27:50.849Z,30.37
2023-02-08T22:30:19.037Z,35.23
2023-02-08T22:32:47.709Z,25.97
2023-02-08T22:35:14.733Z,30.93
2023-02-08T22:37:43.038Z,35.17
2023-02-08T22:40:10.428Z,34.50
2023-02-08T22:42:39.065Z,33.17
2023-02-08T22:45:05.924Z,31.97
2023-02-08T22:47:33.341Z,28.57
2023-02-08T22:49:59.803Z,31.80
2023-02-08T22:52:29.057Z,37.83
2023-02-08T22:54:55.643Z,32.90
2023-02-08T22:57:22.148Z,33.90
2023-02-08T22:59:48.669Z,30.70
2023-02-08T23:02:15.181Z,28.10
2023-02-08T23:04:41.556Z,31.63
2023-02-08T23:07:08.081Z,29.30
2023-02-08T23:09:35.071Z,30.33
2023-02-08T23:12:01.547Z,33.40
2023-02-08T23:14:28.087Z,29.93
2023-02-08T23:16:54.701Z,31.70
2023-02-08T23:19:21.133Z,27.80
2023-02-08T23:21:47.658Z,29.63
2023-02-08T23:24:14.123Z,27.53
2023-02-08T23:26:40.582Z,32.13
2023-02-08T23:29:08.168Z,31.03
2023-02-08T23:31:34.895Z,25.77
2023-02-08T23:34:01.518Z,33.30
2023-02-08T23:36:28.102Z,32.43
2023-02-08T23:38:54.674Z,30.57
2023-02-08T23:41:23.824Z,43.33
2023-02-08T23:43:51.675Z,44.10
2023-02-08T23:46:21.545Z,44.00
2023-02-08T23:48:48.069Z,41.63
2023-02-08T23:51:16.147Z,40.50
2023-02-08T23:53:42.990Z,29.47
2023-02-08T23:56:19.790Z,31.93
2023-02-08T23:58:51.385Z,35.77
